Time;durP1;ratioP1;P1;durP2;ratioP2;P2;SDS_P1;SDS_P2;PMS_P1;PMS_P2;Temp;Humidity;BMP_temperature;BMP_pressure;BME280_temperature;BME280_humidity;BME280_pressure;Samples;Min_cycle;Max_cycle;Signal;HPM_P1;HPM_P2
2024/01/01 00:00:29;;;;;;;;;;;;;;;;;;4989970;28;20293;-49
2024/01/01 00:02:55;;;;;;;;;;;;;;;;;;4990376;28;19967;-49
2024/01/01 00:05:21;;;;;;;;;;;;;;;;;;4988674;28;19926;-50
2024/01/01 00:07:50;;;;;;;;;;;;;;;;;;4989962;28;20300;-49
2024/01/01 00:10:16;;;;;;;;;;;;;;;;;;4989986;28;19910;-49
2024/01/01 00:12:42;;;;;;;;;;;;;;;;;;4989908;28;19975;-50
2024/01/01 00:15:08;;;;;;;;;;;;;;;;;;4990384;28;19917;-50
2024/01/01 00:17:34;;;;;;;;;;;;;;;;;;4989742;28;19925;-49
2024/01/01 00:20:00;;;;;;;;;;;;;;;;;;4989494;28;19948;-49
2024/01/01 00:22:26;;;;;;;;;;;;;;;;;;4989585;28;19997;-49
2024/01/01 00:24:52;;;;;;;;;;;;;;;;;;4989637;28;20515;-49
2024/01/01 00:27:17;;;;;;;;;;;;;;;;;;4989873;28;20265;-49
2024/01/01 00:29:43;;;;;;;;;;;;;;;;;;4989437;28;19997;-48
2024/01/01 00:32:09;;;;;;;;;;;;;;;;;;4989655;28;20112;-50
2024/01/01 00:34:36;;;;;;;;;;;;;;;;;;4990369;28;19910;-50
2024/01/01 00:37:02;;;;;;;;;;;;;;;;;;4989882;28;19910;-50
2024/01/01 00:39:28;;;;;;;;;;;;;;;;;;4989364;28;19920;-50
2024/01/01 00:41:54;;;;;;;;;;;;;;;;;;4989923;28;19913;-49
2024/01/01 00:44:20;;;;;;;;;;;;;;;;;;4989190;28;19917;-50
2024/01/01 00:46:45;;;;;;;;;;;;;;;;;;4989039;28;20395;-49
2024/01/01 00:49:11;;;;;;;;;;;;;;;;;;4989024;28;20251;-49
2024/01/01 00:51:37;;;;;;;;;;;;;;;;;;4989075;28;19905;-49
2024/01/01 00:54:03;;;;;;;;;;;;;;;;;;4989764;28;19910;-50
2024/01/01 00:56:29;;;;;;;;;;;;;;;;;;4988632;28;19936;-50
2024/01/01 00:58:55;;;;;;;;;;;;;;;;;;4988989;28;19914;-49
2024/01/01 01:01:21;;;;;;;;;;;;;;;;;;4988693;28;19910;-49
2024/01/01 01:03:46;;;;;;;;;;;;;;;;;;4988861;28;19921;-48
2024/01/01 01:06:12;;;;;;;;;;;;;;;;;;4989220;28;19910;-49
2024/01/01 01:08:38;;;;;;;;;;;;;;;;;;4988628;28;19913;-49
2024/01/01 01:11:04;;;;;;;;;;;;;;;;;;4988712;28;20005;-49
2024/01/01 01:13:30;;;;;;;;;;;;;;;;;;4988696;28;19914;-50
2024/01/01 01:15:56;;;;;;;;;;;;;;;;;;4988238;28;20191;-49
2024/01/01 01:18:22;;;;;;;;;;;;;;;;;;4988947;28;20349;-49
2024/01/01 01:20:48;;;;;;;;;;;;;;;;;;4988509;28;19909;-49
2024/01/01 01:23:14;;;;;;;;;;;;;;;;;;4988712;28;19992;-49
2024/01/01 01:25:40;;;;;;;;;;;;;;;;;;4988149;28;19933;-49
2024/01/01 01:28:05;;;;;;;;;;;;;;;;;;4988358;28;19910;-49
2024/01/01 01:30:31;;;;;;;;;;;;;;;;;;4988154;28;19906;-49
2024/01/01 01:32:57;;;;;;;;;;;;;;;;;;4988977;28;19992;-49
2024/01/01 01:35:23;;;;;;;;;;;;;;;;;;4988018;28;19921;-49
2024/01/01 01:37:49;;;;;;;;;;;;;;;;;;4987871;28;19925;-49
2024/01/01 01:40:15;;;;;;;;;;;;;;;;;;4988221;28;19975;-49
2024/01/01 01:42:41;;;;;;;;;;;;;;;;;;4987961;28;19912;-49
2024/01/01 01:45:06;;;;;;;;;;;;;;;;;;4988552;28;19909;-49
2024/01/01 01:47:33;;;;;;;;;;;;;;;;;;4987864;28;19917;-49
2024/01/01 01:49:58;;;;;;;;;;;;;;;;;;4988066;28;19910;-49
2024/01/01 01:52:24;;;;;;;;;;;;;;;;;;4987992;28;19925;-49
2024/01/01 01:54:50;;;;;;;;;;;;;;;;;;4987963;28;20306;-49
2024/01/01 01:57:16;;;;;;;;;;;;;;;;;;4988098;28;19924;-49
2024/01/01 01:59:45;;;;;;;;;;;;;;;;;;4982557;28;20012;-51
2024/01/01 02:02:11;;;;;;;;;;;;;;;;;;4984130;28;19937;-50
2024/01/01 02:04:37;;;;;;;;;;;;;;;;;;4980670;28;19917;-50
2024/01/01 02:07:02;;;;;;;;;;;;;;;;;;4959066;28;20353;-51
2024/01/01 02:09:28;;;;;;;;;;;;;;;;;;4980870;28;19916;-50
2024/01/01 02:11:54;;;;;;;;;;;;;;;;;;4986247;28;20040;-50
2024/01/01 02:14:20;;;;;;;;;;;;;;;;;;4980826;28;19918;-51
2024/01/01 02:16:47;;;;;;;;;;;;;;;;;;4980492;28;20455;-51
2024/01/01 02:19:13;;;;;;;;;;;;;;;;;;4987421;28;20109;-50
2024/01/01 02:21:39;;;;;;;;;;;;;;;;;;4983213;28;20189;-51
2024/01/01 02:24:05;;;;;;;;;;;;;;;;;;4977956;28;19933;-50
2024/01/01 02:26:30;;;;;;;;;;;;;;;;;;4978307;28;19924;-50
2024/01/01 02:28:56;;;;;;;;;;;;;;;;;;4979278;28;19937;-51
2024/01/01 02:31:23;;;;;;;;;;;;;;;;;;4980794;28;19935;-50
2024/01/01 02:33:48;;;;;;;;;;;;;;;;;;4992844;28;19910;-51
2024/01/01 02:36:14;;;;;;;;;;;;;;;;;;4985905;28;19924;-50
2024/01/01 02:38:40;;;;;;;;;;;;;;;;;;4990732;28;19926;-51
2024/01/01 02:41:06;;;;;;;;;;;;;;;;;;4978878;28;19921;-50
2024/01/01 02:43:32;;;;;;;;;;;;;;;;;;4990821;28;19921;-51
2024/01/01 02:45:58;;;;;;;;;;;;;;;;;;4980858;28;20060;-51
2024/01/01 02:48:24;;;;;;;;;;;;;;;;;;4983214;28;20004;-53
2024/01/01 02:50:50;;;;;;;;;;;;;;;;;;4982035;28;19968;-51
2024/01/01 02:53:15;;;;;;;;;;;;;;;;;;4985790;28;19960;-50
2024/01/01 02:55:41;;;;;;;;;;;;;;;;;;4984829;28;20346;-50
2024/01/01 02:58:07;;;;;;;;;;;;;;;;;;4977704;28;19924;-51
2024/01/01 03:00:33;;;;;;;;;;;;;;;;;;4980625;28;20384;-50
2024/01/01 03:02:59;;;;;;;;;;;;;;;;;;4984763;28;20312;-50
2024/01/01 03:05:27;;;;;;;;;;;;;;;;;;4978883;28;19922;-50
2024/01/01 03:07:52;;;;;;;;;;;;;;;;;;4985206;28;19914;-50
2024/01/01 03:10:18;;;;;;;;;;;;;;;;;;4984026;28;19924;-51
2024/01/01 03:12:44;;;;;;;;;;;;;;;;;;4989750;28;19924;-51
2024/01/01 03:15:10;;;;;;;;;;;;;;;;;;4981524;28;20012;-51
2024/01/01 03:17:36;;;;;;;;;;;;;;;;;;4987866;28;20044;-51
2024/01/01 03:20:04;;;;;;;;;;;;;;;;;;4982326;28;19992;-51
2024/01/01 03:22:30;;;;;;;;;;;;;;;;;;4985125;28;20184;-51
2024/01/01 03:24:56;;;;;;;;;;;;;;;;;;4984245;28;20543;-51
2024/01/01 03:27:22;;;;;;;;;;;;;;;;;;4982634;28;20020;-51
2024/01/01 03:29:48;;;;;;;;;;;;;;;;;;4982710;28;19976;-51
2024/01/01 03:32:13;;;;;;;;;;;;;;;;;;4981896;28;19936;-51
2024/01/01 03:34:39;;;;;;;;;;;;;;;;;;4984653;28;20450;-51
2024/01/01 03:37:05;;;;;;;;;;;;;;;;;;4985516;28;19944;-51
2024/01/01 03:39:31;;;;;;;;;;;;;;;;;;4983307;28;19921;-51
2024/01/01 03:41:57;;;;;;;;;;;;;;;;;;4989425;28;20095;-51
2024/01/01 03:44:23;;;;;;;;;;;;;;;;;;4982305;28;20377;-51
2024/01/01 03:46:49;;;;;;;;;;;;;;;;;;4992604;28;19914;-51
2024/01/01 03:49:15;;;;;;;;;;;;;;;;;;4983530;28;19996;-51
2024/01/01 03:51:40;;;;;;;;;;;;;;;;;;4979903;28;19917;-51
2024/01/01 03:54:06;;;;;;;;;;;;;;;;;;4983423;28;20355;-51
2024/01/01 03:56:32;;;;;;;;;;;;;;;;;;4982531;28;19936;-51
2024/01/01 03:58:58;;;;;;;;;;;;;;;;;;4982689;28;19983;-51
2024/01/01 04:01:26;;;;;;;;;;;;;;;;;;4980447;28;19924;-51
2024/01/01 04:03:53;;;;;;;;;;;;;;;;;;4986699;28;20048;-51
2024/01/01 04:06:18;;;;;;;;;;;;;;;;;;4992453;28;19913;-51
2024/01/01 04:08:44;;;;;;;;;;;;;;;;;;4982531;28;20327;-51
2024/01/01 04:11:10;;;;;;;;;;;;;;;;;;4986415;28;19921;-51
2024/01/01 04:13:36;;;;;;;;;;;;;;;;;;4987594;28;19922;-51
2024/01/01 04:16:02;;;;;;;;;;;;;;;;;;4980542;28;19917;-51
2024/01/01 04:18:28;;;;;;;;;;;;;;;;;;4983373;28;20511;-50
2024/01/01 04:20:54;;;;;;;;;;;;;;;;;;4982044;28;20451;-51
2024/01/01 04:23:20;;;;;;;;;;;;;;;;;;4984290;28;20109;-51
2024/01/01 04:25:46;;;;;;;;;;;;;;;;;;4980292;28;20061;-51
2024/01/01 04:28:11;;;;;;;;;;;;;;;;;;4986019;28;20412;-51
2024/01/01 04:30:37;;;;;;;;;;;;;;;;;;4978277;28;20150;-51
2024/01/01 04:33:03;;;;;;;;;;;;;;;;;;4988312;28;19909;-51
2024/01/01 04:35:30;;;;;;;;;;;;;;;;;;4986739;28;19957;-51
2024/01/01 04:37:56;;;;;;;;;;;;;;;;;;4983560;28;20406;-51
2024/01/01 04:40:22;;;;;;;;;;;;;;;;;;4978411;28;20008;-51
2024/01/01 04:42:49;;;;;;;;;;;;;;;;;;4976742;28;20566;-51
2024/01/01 04:45:15;;;;;;;;;;;;;;;;;;4977876;28;20452;-51
2024/01/01 04:47:41;;;;;;;;;;;;;;;;;;4986679;28;20008;-51
2024/01/01 04:50:07;;;;;;;;;;;;;;;;;;4976390;28;19924;-51
2024/01/01 04:52:33;;;;;;;;;;;;;;;;;;4984058;28;20014;-51
2024/01/01 04:54:59;;;;;;;;;;;;;;;;;;4980846;28;19928;-51
2024/01/01 04:57:25;;;;;;;;;;;;;;;;;;4988434;28;20459;-51
2024/01/01 04:59:50;;;;;;;;;;;;;;;;;;4980290;28;19922;-51
2024/01/01 05:02:16;;;;;;;;;;;;;;;;;;4975980;28;19922;-51
2024/01/01 05:04:42;;;;;;;;;;;;;;;;;;4982565;28;19921;-51
2024/01/01 05:07:08;;;;;;;;;;;;;;;;;;4985261;28;19976;-51
2024/01/01 05:09:34;;;;;;;;;;;;;;;;;;4976950;28;19918;-51
2024/01/01 05:12:00;;;;;;;;;;;;;;;;;;4978352;28;19988;-51
2024/01/01 05:14:26;;;;;;;;;;;;;;;;;;4980344;28;19922;-51
2024/01/01 05:16:52;;;;;;;;;;;;;;;;;;4991089;28;20004;-51
2024/01/01 05:19:17;;;;;;;;;;;;;;;;;;4980576;28;19922;-51
2024/01/01 05:21:43;;;;;;;;;;;;;;;;;;4987558;28;19944;-51
2024/01/01 05:24:09;;;;;;;;;;;;;;;;;;4983150;28;19910;-51
2024/01/01 05:26:35;;;;;;;;;;;;;;;;;;4979850;28;20374;-51
2024/01/01 05:29:01;;;;;;;;;;;;;;;;;;4980642;28;19924;-51
2024/01/01 05:31:27;;;;;;;;;;;;;;;;;;4975975;28;20006;-51
2024/01/01 05:33:53;;;;;;;;;;;;;;;;;;4977552;28;19922;-51
2024/01/01 05:36:18;;;;;;;;;;;;;;;;;;4985852;28;20377;-51
2024/01/01 05:38:44;;;;;;;;;;;;;;;;;;4984530;28;19918;-51
2024/01/01 05:41:11;;;;;;;;;;;;;;;;;;4982047;28;19921;-51
2024/01/01 05:43:36;;;;;;;;;;;;;;;;;;4979230;28;20503;-51
2024/01/01 05:46:02;;;;;;;;;;;;;;;;;;4976520;28;19922;-51
2024/01/01 05:48:28;;;;;;;;;;;;;;;;;;4984859;28;19914;-51
2024/01/01 05:50:54;;;;;;;;;;;;;;;;;;4979778;28;20626;-51
2024/01/01 05:53:20;;;;;;;;;;;;;;;;;;4981365;28;20501;-51
2024/01/01 05:55:46;;;;;;;;;;;;;;;;;;4981217;28;19948;-51
2024/01/01 05:58:12;;;;;;;;;;;;;;;;;;4982361;28;19921;-51
2024/01/01 06:00:39;;;;;;;;;;;;;;;;;;4983001;28;19909;-51
2024/01/01 06:03:04;;;;;;;;;;;;;;;;;;4978765;28;19924;-51
2024/01/01 06:05:30;;;;;;;;;;;;;;;;;;4979806;28;19918;-51
2024/01/01 06:07:56;;;;;;;;;;;;;;;;;;4986028;28;20387;-51
2024/01/01 06:10:22;;;;;;;;;;;;;;;;;;4980338;28;19917;-51
2024/01/01 06:12:48;;;;;;;;;;;;;;;;;;4985947;28;21916;-51
2024/01/01 06:15:14;;;;;;;;;;;;;;;;;;4978627;28;19909;-51
2024/01/01 06:17:40;;;;;;;;;;;;;;;;;;4981870;28;19967;-51
2024/01/01 06:20:06;;;;;;;;;;;;;;;;;;4979363;28;20012;-51
2024/01/01 06:22:32;;;;;;;;;;;;;;;;;;4977957;28;20018;-51
2024/01/01 06:24:57;;;;;;;;;;;;;;;;;;4977236;28;19952;-51
2024/01/01 06:27:23;;;;;;;;;;;;;;;;;;4975307;28;19918;-50
2024/01/01 06:29:49;;;;;;;;;;;;;;;;;;4988221;28;20005;-51
2024/01/01 06:32:15;;;;;;;;;;;;;;;;;;4978011;28;19913;-51
2024/01/01 06:34:43;;;;;;;;;;;;;;;;;;4983448;28;19913;-51
2024/01/01 06:37:09;;;;;;;;;;;;;;;;;;4981022;28;19962;-50
2024/01/01 06:39:35;;;;;;;;;;;;;;;;;;4978699;28;19964;-50
2024/01/01 06:42:01;;;;;;;;;;;;;;;;;;4949075;28;19913;-50
2024/01/01 06:44:27;;;;;;;;;;;;;;;;;;4968792;28;19922;-51
2024/01/01 06:46:53;;;;;;;;;;;;;;;;;;4969814;28;19925;-50
2024/01/01 06:49:19;;;;;;;;;;;;;;;;;;4968381;28;19913;-51
2024/01/01 06:51:45;;;;;;;;;;;;;;;;;;4970191;28;19972;-51
2024/01/01 06:54:10;;;;;;;;;;;;;;;;;;4973810;28;19909;-51
2024/01/01 06:56:36;;;;;;;;;;;;;;;;;;4968099;28;20527;-51
2024/01/01 06:59:02;;;;;;;;;;;;;;;;;;4967227;28;19944;-51
2024/01/01 07:01:28;;;;;;;;;;;;;;;;;;4955906;28;20196;-51
2024/01/01 07:03:54;;;;;;;;;;;;;;;;;;4969828;28;19920;-51
2024/01/01 07:06:20;;;;;;;;;;;;;;;;;;4976228;28;20009;-50
2024/01/01 07:08:46;;;;;;;;;;;;;;;;;;4969503;28;20032;-51
2024/01/01 07:11:12;;;;;;;;;;;;;;;;;;4971437;28;20306;-50
2024/01/01 07:13:38;;;;;;;;;;;;;;;;;;4969386;28;19914;-50
2024/01/01 07:16:04;;;;;;;;;;;;;;;;;;4973264;28;20484;-51
2024/01/01 07:18:30;;;;;;;;;;;;;;;;;;4977692;28;19914;-51
2024/01/01 07:20:56;;;;;;;;;;;;;;;;;;4971686;28;20072;-50
2024/01/01 07:23:22;;;;;;;;;;;;;;;;;;4969378;28;20369;-50
2024/01/01 07:25:49;;;;;;;;;;;;;;;;;;4977569;28;19968;-51
2024/01/01 07:28:15;;;;;;;;;;;;;;;;;;4976345;28;19921;-51
2024/01/01 07:30:41;;;;;;;;;;;;;;;;;;4972798;28;19929;-51
2024/01/01 07:33:07;;;;;;;;;;;;;;;;;;4972378;28;20480;-51
2024/01/01 07:35:33;;;;;;;;;;;;;;;;;;4974465;28;19921;-51
2024/01/01 07:38:00;;;;;;;;;;;;;;;;;;4972352;28;19969;-50
2024/01/01 07:40:26;;;;;;;;;;;;;;;;;;4973931;28;19949;-51
2024/01/01 07:42:52;;;;;;;;;;;;;;;;;;4969546;28;20503;-50
2024/01/01 07:45:18;;;;;;;;;;;;;;;;;;4963225;28;19960;-50
2024/01/01 07:47:44;;;;;;;;;;;;;;;;;;4968685;28;19967;-50
2024/01/01 07:50:09;;;;;;;;;;;;;;;;;;4972800;28;20412;-51
2024/01/01 07:52:36;;;;;;;;;;;;;;;;;;4970397;28;19913;-51
2024/01/01 07:55:02;;;;;;;;;;;;;;;;;;4966588;28;20424;-51
2024/01/01 07:57:28;;;;;;;;;;;;;;;;;;4968826;28;19945;-50
2024/01/01 07:59:58;;;;;;;;;;;;;;;;;;4971726;28;19917;-51
2024/01/01 08:02:25;;;;;;;;;;;;;;;;;;4977174;28;20292;-51
2024/01/01 08:04:51;;;;;;;;;;;;;;;;;;4975017;28;19918;-51
2024/01/01 08:07:17;;;;;;;;;;;;;;;;;;4958937;28;19951;-51
2024/01/01 08:09:43;;;;;;;;;;;;;;;;;;4972524;28;19918;-51
2024/01/01 08:12:09;;;;;;;;;;;;;;;;;;4974324;28;20381;-52
2024/01/01 08:14:37;;;;;;;;;;;;;;;;;;4971877;28;19922;-50
2024/01/01 08:17:02;;;;;;;;;;;;;;;;;;4968809;28;19940;-50
2024/01/01 08:19:28;;;;;;;;;;;;;;;;;;4975850;28;19918;-50
2024/01/01 08:21:54;;;;;;;;;;;;;;;;;;4969436;28;20007;-49
2024/01/01 08:24:20;;;;;;;;;;;;;;;;;;4965436;28;20489;-48
2024/01/01 08:26:46;;;;;;;;;;;;;;;;;;4973103;28;20337;-49
2024/01/01 08:29:12;;;;;;;;;;;;;;;;;;4975708;28;19921;-49
2024/01/01 08:34:22;;;;;;;;;;;;;;;;;;4975587;28;19935;-49
2024/01/01 08:36:48;;;;;;;;;;;;;;;;;;4974494;28;19925;-48
2024/01/01 08:39:14;;;;;;;;;;;;;;;;;;4971825;28;19914;-48
2024/01/01 08:41:40;;;;;;;;;;;;;;;;;;4970014;28;19914;-49
2024/01/01 08:44:07;;;;;;;;;;;;;;;;;;4969520;28;19920;-48
2024/01/01 08:46:32;;;;;;;;;;;;;;;;;;4957069;28;19922;-49
2024/01/01 08:48:58;;;;;;;;;;;;;;;;;;4969963;28;20536;-48
2024/01/01 08:51:24;;;;;;;;;;;;;;;;;;4963908;28;19960;-51
2024/01/01 08:53:50;;;;;;;;;;;;;;;;;;4967487;28;20014;-51
2024/01/01 08:56:16;;;;;;;;;;;;;;;;;;4971823;28;19917;-51
2024/01/01 08:58:42;;;;;;;;;;;;;;;;;;4968328;28;19918;-51
2024/01/01 09:01:08;;;;;;;;;;;;;;;;;;4958304;28;20031;-50
2024/01/01 09:03:34;;;;;;;;;;;;;;;;;;4980778;28;19959;-51
2024/01/01 09:06:00;;;;;;;;;;;;;;;;;;4978998;28;19927;-51
2024/01/01 09:08:26;;;;;;;;;;;;;;;;;;4981107;28;19909;-51
2024/01/01 09:10:52;;;;;;;;;;;;;;;;;;4980245;28;19956;-51
2024/01/01 09:13:17;;;;;;;;;;;;;;;;;;4981623;28;20371;-51
2024/01/01 09:15:43;;;;;;;;;;;;;;;;;;4976822;28;19921;-51
2024/01/01 09:18:09;;;;;;;;;;;;;;;;;;4982703;28;19925;-51
2024/01/01 09:20:35;;;;;;;;;;;;;;;;;;4979239;28;20409;-51
2024/01/01 09:23:01;;;;;;;;;;;;;;;;;;4971115;28;19989;-51
2024/01/01 09:25:27;;;;;;;;;;;;;;;;;;4976425;28;19914;-51
2024/01/01 09:27:53;;;;;;;;;;;;;;;;;;4993942;28;20251;-51
2024/01/01 09:30:18;;;;;;;;;;;;;;;;;;4988498;28;20471;-51
2024/01/01 09:32:44;;;;;;;;;;;;;;;;;;4983627;28;19918;-51
2024/01/01 09:35:10;;;;;;;;;;;;;;;;;;4971625;28;19922;-51
2024/01/01 09:37:36;;;;;;;;;;;;;;;;;;4976212;28;20453;-50
2024/01/01 09:40:02;;;;;;;;;;;;;;;;;;4980853;28;19932;-51
2024/01/01 09:42:28;;;;;;;;;;;;;;;;;;4976637;28;20407;-51
2024/01/01 09:44:54;;;;;;;;;;;;;;;;;;4975952;28;19913;-51
2024/01/01 09:47:20;;;;;;;;;;;;;;;;;;4975076;28;19968;-51
2024/01/01 09:49:46;;;;;;;;;;;;;;;;;;4968985;28;20368;-51
2024/01/01 09:52:12;;;;;;;;;;;;;;;;;;4971750;28;20162;-51
2024/01/01 09:54:38;;;;;;;;;;;;;;;;;;4967255;28;19924;-51
2024/01/01 09:57:03;;;;;;;;;;;;;;;;;;4944801;28;19914;-51
2024/01/01 09:59:29;;;;;;;;;;;;;;;;;;4974360;28;19922;-51
2024/01/01 10:01:55;;;;;;;;;;;;;;;;;;4966967;28;19913;-51
2024/01/01 10:04:21;;;;;;;;;;;;;;;;;;4969193;28;19945;-51
2024/01/01 10:06:47;;;;;;;;;;;;;;;;;;4969081;28;20304;-51
2024/01/01 10:09:13;;;;;;;;;;;;;;;;;;4973996;28;19910;-51
2024/01/01 10:11:41;;;;;;;;;;;;;;;;;;4969337;28;19925;-51
2024/01/01 10:14:07;;;;;;;;;;;;;;;;;;4971010;28;19921;-51
2024/01/01 10:16:33;;;;;;;;;;;;;;;;;;4965720;28;19918;-51
2024/01/01 10:19:00;;;;;;;;;;;;;;;;;;4975137;28;19957;-51
2024/01/01 10:21:26;;;;;;;;;;;;;;;;;;4965322;28;19909;-51
2024/01/01 10:23:52;;;;;;;;;;;;;;;;;;4972727;28;20070;-51
2024/01/01 10:26:18;;;;;;;;;;;;;;;;;;4964890;28;20029;-51
2024/01/01 10:28:44;;;;;;;;;;;;;;;;;;4972999;28;19925;-50
2024/01/01 10:31:12;;;;;;;;;;;;;;;;;;4971200;28;19913;-51
2024/01/01 10:33:38;;;;;;;;;;;;;;;;;;4969528;28;19933;-51
2024/01/01 10:36:04;;;;;;;;;;;;;;;;;;4971283;28;19910;-51
2024/01/01 10:38:30;;;;;;;;;;;;;;;;;;4960141;28;19922;-51
2024/01/01 10:40:56;;;;;;;;;;;;;;;;;;4961142;28;19922;-51
2024/01/01 10:43:22;;;;;;;;;;;;;;;;;;4965465;28;20020;-51
2024/01/01 10:45:47;;;;;;;;;;;;;;;;;;4969720;28;19926;-52
2024/01/01 10:48:13;;;;;;;;;;;;;;;;;;4971424;28;19968;-51
2024/01/01 10:50:39;;;;;;;;;;;;;;;;;;4973049;28;19917;-51
2024/01/01 10:53:05;;;;;;;;;;;;;;;;;;4970893;28;19952;-51
2024/01/01 10:55:31;;;;;;;;;;;;;;;;;;4961360;28;21123;-51
2024/01/01 10:57:57;;;;;;;;;;;;;;;;;;4972956;28;20332;-51
2024/01/01 11:00:23;;;;;;;;;;;;;;;;;;4969799;28;19922;-51
2024/01/01 11:02:49;;;;;;;;;;;;;;;;;;4978763;28;19963;-51
2024/01/01 11:05:16;;;;;;;;;;;;;;;;;;4970242;28;19930;-50
2024/01/01 11:07:42;;;;;;;;;;;;;;;;;;4974690;28;19913;-50
2024/01/01 11:10:08;;;;;;;;;;;;;;;;;;4968853;28;20234;-51
2024/01/01 11:12:34;;;;;;;;;;;;;;;;;;4975042;28;19917;-50
2024/01/01 11:15:00;;;;;;;;;;;;;;;;;;4973958;28;19939;-50
2024/01/01 11:17:27;;;;;;;;;;;;;;;;;;4975984;28;19972;-50
2024/01/01 11:19:53;;;;;;;;;;;;;;;;;;4970659;28;19926;-50
2024/01/01 11:22:19;;;;;;;;;;;;;;;;;;4973948;28;19929;-50
2024/01/01 11:24:45;;;;;;;;;;;;;;;;;;4968210;28;19992;-51
2024/01/01 11:27:11;;;;;;;;;;;;;;;;;;4979316;28;21263;-51
2024/01/01 11:29:37;;;;;;;;;;;;;;;;;;4974885;28;19924;-51
2024/01/01 11:32:03;;;;;;;;;;;;;;;;;;4972626;28;19960;-51
2024/01/01 11:34:28;;;;;;;;;;;;;;;;;;4968512;28;19922;-51
2024/01/01 11:36:54;;;;;;;;;;;;;;;;;;4975808;28;20332;-51
2024/01/01 11:39:24;;;;;;;;;;;;;;;;;;4957398;28;20007;-51
2024/01/01 11:41:50;;;;;;;;;;;;;;;;;;4975474;28;20008;-51
2024/01/01 11:44:17;;;;;;;;;;;;;;;;;;4974565;28;19913;-51
2024/01/01 11:46:43;;;;;;;;;;;;;;;;;;4969759;28;20020;-51
2024/01/01 11:49:09;;;;;;;;;;;;;;;;;;4968789;28;20041;-50
2024/01/01 11:51:35;;;;;;;;;;;;;;;;;;4969382;28;20598;-51
2024/01/01 11:54:01;;;;;;;;;;;;;;;;;;4974260;28;19905;-50
2024/01/01 11:56:27;;;;;;;;;;;;;;;;;;4968055;28;19914;-50
2024/01/01 11:58:53;;;;;;;;;;;;;;;;;;4978980;28;19917;-50
2024/01/01 12:01:18;;;;;;;;;;;;;;;;;;4967585;28;20396;-50
2024/01/01 12:03:44;;;;;;;;;;;;;;;;;;4973095;28;21075;-51
2024/01/01 12:06:11;;;;;;;;;;;;;;;;;;4977847;28;19957;-51
2024/01/01 12:08:37;;;;;;;;;;;;;;;;;;4983530;28;20300;-50
2024/01/01 12:11:03;;;;;;;;;;;;;;;;;;4977327;28;20048;-50
2024/01/01 12:13:29;;;;;;;;;;;;;;;;;;4980385;28;19921;-50
2024/01/01 12:15:55;;;;;;;;;;;;;;;;;;4967266;28;19921;-50
2024/01/01 12:18:21;;;;;;;;;;;;;;;;;;4971571;28;19963;-50
2024/01/01 12:20:47;;;;;;;;;;;;;;;;;;4969493;28;19937;-50
2024/01/01 12:23:13;;;;;;;;;;;;;;;;;;4981283;28;19909;-50
2024/01/01 12:25:38;;;;;;;;;;;;;;;;;;4981889;28;20340;-50
2024/01/01 12:28:04;;;;;;;;;;;;;;;;;;4983134;28;20171;-50
2024/01/01 12:30:30;;;;;;;;;;;;;;;;;;4977784;28;20332;-50
2024/01/01 12:32:57;;;;;;;;;;;;;;;;;;4984680;28;19910;-50
2024/01/01 12:35:22;;;;;;;;;;;;;;;;;;4982981;28;19920;-50
2024/01/01 12:37:48;;;;;;;;;;;;;;;;;;4983631;28;20376;-50
2024/01/01 12:40:14;;;;;;;;;;;;;;;;;;4978064;28;20394;-50
2024/01/01 12:42:40;;;;;;;;;;;;;;;;;;4984089;28;20004;-50
2024/01/01 12:45:06;;;;;;;;;;;;;;;;;;4981714;28;20633;-50
2024/01/01 12:47:32;;;;;;;;;;;;;;;;;;4983805;28;19914;-50
2024/01/01 12:49:58;;;;;;;;;;;;;;;;;;4980228;28;19918;-50
2024/01/01 12:52:24;;;;;;;;;;;;;;;;;;4982537;28;19913;-50
2024/01/01 12:54:50;;;;;;;;;;;;;;;;;;4980050;28;20107;-50
2024/01/01 12:57:17;;;;;;;;;;;;;;;;;;4980694;28;19952;-50
2024/01/01 12:59:42;;;;;;;;;;;;;;;;;;4979404;28;19914;-50
2024/01/01 13:02:08;;;;;;;;;;;;;;;;;;4972509;28;19920;-50
2024/01/01 13:04:34;;;;;;;;;;;;;;;;;;4982450;28;20042;-50
2024/01/01 13:07:00;;;;;;;;;;;;;;;;;;4974128;28;20148;-50
2024/01/01 13:09:26;;;;;;;;;;;;;;;;;;4951093;28;20393;-50
2024/01/01 13:11:52;;;;;;;;;;;;;;;;;;4968934;28;20028;-50
2024/01/01 13:14:18;;;;;;;;;;;;;;;;;;4969885;28;19913;-50
2024/01/01 13:16:45;;;;;;;;;;;;;;;;;;4976776;28;19920;-50
2024/01/01 13:19:11;;;;;;;;;;;;;;;;;;4979337;28;20061;-50
2024/01/01 13:21:38;;;;;;;;;;;;;;;;;;4965813;28;20389;-50
2024/01/01 13:24:04;;;;;;;;;;;;;;;;;;4968749;28;19906;-51
2024/01/01 13:26:30;;;;;;;;;;;;;;;;;;4978471;28;20661;-51
2024/01/01 13:28:56;;;;;;;;;;;;;;;;;;4972603;28;19918;-50
2024/01/01 13:31:21;;;;;;;;;;;;;;;;;;4962369;28;21708;-51
2024/01/01 13:33:47;;;;;;;;;;;;;;;;;;4973615;28;19925;-50
2024/01/01 13:36:13;;;;;;;;;;;;;;;;;;4980845;28;19906;-50
2024/01/01 13:38:41;;;;;;;;;;;;;;;;;;4979193;28;20409;-50
2024/01/01 13:41:07;;;;;;;;;;;;;;;;;;4969278;28;19914;-50
2024/01/01 13:43:33;;;;;;;;;;;;;;;;;;4975706;28;19913;-50
2024/01/01 13:45:59;;;;;;;;;;;;;;;;;;4960819;28;19921;-50
2024/01/01 13:48:24;;;;;;;;;;;;;;;;;;4970994;28;21814;-50
2024/01/01 13:50:52;;;;;;;;;;;;;;;;;;4968734;28;19952;-51
2024/01/01 13:53:17;;;;;;;;;;;;;;;;;;4966110;28;19928;-50
2024/01/01 13:55:43;;;;;;;;;;;;;;;;;;4965145;28;19924;-51
2024/01/01 13:58:09;;;;;;;;;;;;;;;;;;4967904;28;19936;-50
2024/01/01 14:00:37;;;;;;;;;;;;;;;;;;4972024;28;19913;-54
2024/01/01 14:03:02;;;;;;;;;;;;;;;;;;4961681;28;21998;-55
2024/01/01 14:05:28;;;;;;;;;;;;;;;;;;4960805;28;19926;-54
2024/01/01 14:07:54;;;;;;;;;;;;;;;;;;4970710;28;20252;-54
2024/01/01 14:10:20;;;;;;;;;;;;;;;;;;4953863;28;20020;-54
2024/01/01 14:12:46;;;;;;;;;;;;;;;;;;4964711;28;19918;-54
2024/01/01 14:15:12;;;;;;;;;;;;;;;;;;4962824;28;19914;-55
2024/01/01 14:17:38;;;;;;;;;;;;;;;;;;4971372;28;20416;-54
2024/01/01 14:20:05;;;;;;;;;;;;;;;;;;4965523;28;19921;-54
2024/01/01 14:22:31;;;;;;;;;;;;;;;;;;4968007;28;20153;-55
2024/01/01 14:24:56;;;;;;;;;;;;;;;;;;4965505;28;19945;-55
2024/01/01 14:27:22;;;;;;;;;;;;;;;;;;4961682;28;19909;-55
2024/01/01 14:29:49;;;;;;;;;;;;;;;;;;4965003;28;20308;-55
2024/01/01 14:32:15;;;;;;;;;;;;;;;;;;4958947;28;20373;-55
2024/01/01 14:34:41;;;;;;;;;;;;;;;;;;4967499;28;19928;-55
2024/01/01 14:37:07;;;;;;;;;;;;;;;;;;4966423;28;19918;-55
2024/01/01 14:39:33;;;;;;;;;;;;;;;;;;4959969;28;20012;-55
2024/01/01 14:41:59;;;;;;;;;;;;;;;;;;4965618;28;20241;-55
2024/01/01 14:44:26;;;;;;;;;;;;;;;;;;4964590;28;19922;-55
2024/01/01 14:46:52;;;;;;;;;;;;;;;;;;4961008;28;19918;-55
2024/01/01 14:49:18;;;;;;;;;;;;;;;;;;4967746;28;19924;-54
2024/01/01 14:51:44;;;;;;;;;;;;;;;;;;4962988;28;20366;-54
2024/01/01 14:54:10;;;;;;;;;;;;;;;;;;4968099;28;19905;-55
2024/01/01 14:56:36;;;;;;;;;;;;;;;;;;4971270;28;20027;-56
2024/01/01 14:59:02;;;;;;;;;;;;;;;;;;4973358;28;19969;-55
2024/01/01 15:01:28;;;;;;;;;;;;;;;;;;4962420;28;19925;-55
2024/01/01 15:03:53;;;;;;;;;;;;;;;;;;4972871;28;20237;-55
2024/01/01 15:09:11;;;;;;;;;;;;;;;;;;4976983;28;20288;-55
2024/01/01 15:11:37;;;;;;;;;;;;;;;;;;4964492;28;19921;-56
2024/01/01 15:14:03;;;;;;;;;;;;;;;;;;4972996;28;20375;-55
2024/01/01 15:16:29;;;;;;;;;;;;;;;;;;4967536;28;19921;-56
2024/01/01 15:18:55;;;;;;;;;;;;;;;;;;4973696;28;19922;-55
2024/01/01 15:21:22;;;;;;;;;;;;;;;;;;4968374;28;20325;-55
2024/01/01 15:23:48;;;;;;;;;;;;;;;;;;4972612;28;20079;-55
2024/01/01 15:26:14;;;;;;;;;;;;;;;;;;4971587;28;20437;-55
2024/01/01 15:28:40;;;;;;;;;;;;;;;;;;4966177;28;19926;-56
2024/01/01 15:31:06;;;;;;;;;;;;;;;;;;4977852;28;19917;-55
2024/01/01 15:33:32;;;;;;;;;;;;;;;;;;4979488;28;19991;-55
2024/01/01 15:35:57;;;;;;;;;;;;;;;;;;4984243;28;19910;-56
2024/01/01 15:38:23;;;;;;;;;;;;;;;;;;4986136;28;19971;-55
2024/01/01 15:40:49;;;;;;;;;;;;;;;;;;4991199;28;19921;-55
2024/01/01 15:43:15;;;;;;;;;;;;;;;;;;4986083;28;19924;-54
2024/01/01 15:45:41;;;;;;;;;;;;;;;;;;4979575;28;20084;-54
2024/01/01 15:48:07;;;;;;;;;;;;;;;;;;4978814;28;19914;-54
2024/01/01 15:50:33;;;;;;;;;;;;;;;;;;4977706;28;19913;-54
2024/01/01 15:52:58;;;;;;;;;;;;;;;;;;4981242;28;19913;-54
2024/01/01 15:55:24;;;;;;;;;;;;;;;;;;4977152;28;19944;-55
2024/01/01 15:57:50;;;;;;;;;;;;;;;;;;4982675;28;20431;-55
2024/01/01 16:00:16;;;;;;;;;;;;;;;;;;4984444;28;20036;-55
2024/01/01 16:02:42;;;;;;;;;;;;;;;;;;4971575;28;19993;-55
2024/01/01 16:05:08;;;;;;;;;;;;;;;;;;4976962;28;20546;-55
2024/01/01 16:07:34;;;;;;;;;;;;;;;;;;4979035;28;19926;-55
2024/01/01 16:10:00;;;;;;;;;;;;;;;;;;4973873;28;19933;-55
2024/01/01 16:12:26;;;;;;;;;;;;;;;;;;4980497;28;19980;-55
2024/01/01 16:14:52;;;;;;;;;;;;;;;;;;4963390;28;20361;-55
2024/01/01 16:17:18;;;;;;;;;;;;;;;;;;4975174;28;19914;-57
2024/01/01 16:19:44;;;;;;;;;;;;;;;;;;4972053;28;19925;-57
2024/01/01 16:22:13;;;;;;;;;;;;;;;;;;4971163;28;19914;-55
2024/01/01 16:24:38;;;;;;;;;;;;;;;;;;4975645;28;19916;-55
2024/01/01 16:27:04;;;;;;;;;;;;;;;;;;4977352;28;19921;-55
2024/01/01 16:29:30;;;;;;;;;;;;;;;;;;4971462;28;20049;-55
2024/01/01 16:31:56;;;;;;;;;;;;;;;;;;4972431;28;19925;-55
2024/01/01 16:34:22;;;;;;;;;;;;;;;;;;4972574;28;21699;-57
2024/01/01 16:36:48;;;;;;;;;;;;;;;;;;4971357;28;19924;-57
2024/01/01 16:39:14;;;;;;;;;;;;;;;;;;4975314;28;19910;-57
2024/01/01 16:41:40;;;;;;;;;;;;;;;;;;4976516;28;20048;-57